createdAt,value
2023-03-03T00:00:08.811Z,98720.94
2023-03-03T00:02:35.721Z,98722.56
2023-03-03T00:05:02.698Z,98710.91
2023-03-03T00:07:29.763Z,98715.81
2023-03-03T00:09:56.874Z,98708.34
2023-03-03T00:12:29.516Z,98722.03
2023-03-03T00:14:56.838Z,98715.28
2023-03-03T00:17:33.043Z,98722.25
2023-03-03T00:20:00.031Z,98714.03
2023-03-03T00:22:37.422Z,98710.91
2023-03-03T00:25:19.979Z,98714.25
2023-03-03T00:27:47.238Z,98702.47
2023-03-03T00:30:27.773Z,98690.63
2023-03-03T00:32:56.105Z,98683.78
2023-03-03T00:35:35.661Z,98704.13
2023-03-03T00:38:13.044Z,98690.44
2023-03-03T00:40:41.248Z,98701.97
2023-03-03T00:43:26.117Z,98698.69
2023-03-03T00:45:55.230Z,98699.06
2023-03-03T00:48:29.357Z,98701.38
2023-03-03T00:50:58.949Z,98705.63
2023-03-03T00:53:28.290Z,98696.53
2023-03-03T00:55:55.848Z,98695.72
2023-03-03T00:58:24.419Z,98707.34
2023-03-03T01:00:56.901Z,98695.81
2023-03-03T01:03:26.769Z,98699.94
2023-03-03T01:05:54.898Z,98697.53
2023-03-03T01:08:22.602Z,98688.94
2023-03-03T01:10:58.845Z,98700.19
2023-03-03T01:13:31.658Z,98691.13
2023-03-03T01:16:00.234Z,98688.81
2023-03-03T01:18:28.095Z,98687.47
2023-03-03T01:20:55.043Z,98682.94
2023-03-03T01:23:22.296Z,98673.22
2023-03-03T01:25:49.682Z,98681.34
2023-03-03T01:28:16.599Z,98671.19
2023-03-03T01:30:43.775Z,98665.88
2023-03-03T01:33:10.727Z,98664.88
2023-03-03T01:35:38.079Z,98660.06
2023-03-03T01:38:05.046Z,98646.78
2023-03-03T01:40:32.162Z,98656.22
2023-03-03T01:43:01.977Z,98653.34
2023-03-03T01:45:43.697Z,98654.97
2023-03-03T01:48:23.580Z,98653.75
2023-03-03T01:50:54.752Z,98648.25
2023-03-03T01:53:38.665Z,98652.31
2023-03-03T01:56:08.988Z,98641.16
2023-03-03T01:58:40.790Z,98640.31
2023-03-03T02:01:20.678Z,98646.53
2023-03-03T02:03:48.772Z,98649.88
2023-03-03T02:06:19.529Z,98647.69
2023-03-03T02:09:29.940Z,98654.44
2023-03-03T02:12:16.406Z,98658.19
2023-03-03T02:14:51.329Z,98649.94
2023-03-03T02:17:52.689Z,98639.13
2023-03-03T02:20:46.351Z,98650.44
2023-03-03T02:23:36.432Z,98652.22
2023-03-03T02:26:07.760Z,98654.03
2023-03-03T02:28:37.067Z,98661.41
2023-03-03T02:31:07.651Z,98657.94
2023-03-03T02:33:34.592Z,98658.97
2023-03-03T02:36:01.564Z,98669.03
2023-03-03T02:38:36.772Z,98658.25
2023-03-03T02:41:28.264Z,98659.94
2023-03-03T02:44:02.738Z,98656.13
2023-03-03T02:46:34.633Z,98656.47
2023-03-03T02:49:01.953Z,98661.56
2023-03-03T02:51:28.877Z,98659.53
2023-03-03T02:53:55.851Z,98654.88
2023-03-03T02:56:23.339Z,98654.66
2023-03-03T02:58:50.612Z,98644.31
2023-03-03T03:01:18.033Z,98647.44
2023-03-03T03:03:45.160Z,98651.78
2023-03-03T03:06:12.154Z,98650.19
2023-03-03T03:08:39.206Z,98654.66
2023-03-03T03:11:06.374Z,98656.56
2023-03-03T03:13:33.914Z,98648.88
2023-03-03T03:16:01.281Z,98656.06
2023-03-03T03:18:28.567Z,98653.75
2023-03-03T03:20:55.556Z,98648.56
2023-03-03T03:23:22.533Z,98645.09
2023-03-03T03:25:49.758Z,98640.88
2023-03-03T03:28:17.912Z,98633.44
2023-03-03T03:30:45.962Z,98645.03
2023-03-03T03:33:13.285Z,98643.94
2023-03-03T03:35:45.782Z,98650.06
2023-03-03T03:38:13.494Z,98641.03
2023-03-03T03:40:40.808Z,98641.69
2023-03-03T03:43:08.006Z,98638.22
2023-03-03T03:45:34.955Z,98641.09
2023-03-03T03:48:01.992Z,98640.16
2023-03-03T03:50:29.115Z,98638.69
2023-03-03T03:52:56.039Z,98645.44
2023-03-03T03:55:23.213Z,98630.31
2023-03-03T03:57:50.281Z,98634.66
2023-03-03T04:00:17.442Z,98631.25
2023-03-03T04:02:44.441Z,98634.56
2023-03-03T04:05:11.459Z,98642.78
2023-03-03T04:07:38.366Z,98645.56
2023-03-03T04:10:06.012Z,98652.63
2023-03-03T04:12:38.669Z,98645.13
2023-03-03T04:15:10.986Z,98654.94
2023-03-03T04:17:38.017Z,98652.53
2023-03-03T04:20:06.241Z,98665.63
2023-03-03T04:22:34.224Z,98660.75
2023-03-03T04:25:05.470Z,98654.53
2023-03-03T04:27:33.907Z,98656.00
2023-03-03T04:30:02.019Z,98645.06
2023-03-03T04:32:29.324Z,98654.22
2023-03-03T04:35:07.275Z,98644.75
2023-03-03T04:37:36.660Z,98626.59
2023-03-03T04:40:08.249Z,98652.75
2023-03-03T04:42:35.776Z,98643.16
2023-03-03T04:45:03.243Z,98639.25
2023-03-03T04:47:30.242Z,98624.91
2023-03-03T04:49:57.169Z,98647.88
2023-03-03T04:52:24.234Z,98640.50
2023-03-03T04:54:51.129Z,98652.22
2023-03-03T04:57:18.087Z,98645.78
2023-03-03T04:59:45.189Z,98646.53
2023-03-03T05:02:13.285Z,98646.44
2023-03-03T05:04:40.272Z,98648.34
2023-03-03T05:07:07.208Z,98634.63
2023-03-03T05:09:34.420Z,98637.78
2023-03-03T05:12:01.353Z,98641.25
2023-03-03T05:14:28.435Z,98632.09
2023-03-03T05:16:55.408Z,98633.78
2023-03-03T05:19:22.408Z,98649.78
2023-03-03T05:21:49.450Z,98668.47
2023-03-03T05:24:16.494Z,98683.75
2023-03-03T05:26:43.365Z,98681.44
2023-03-03T05:29:10.429Z,98649.78
2023-03-03T05:31:37.423Z,98681.44
2023-03-03T05:34:04.418Z,98678.31
2023-03-03T05:36:31.462Z,98670.91
2023-03-03T05:38:58.720Z,98675.53
2023-03-03T05:41:25.759Z,98690.00
2023-03-03T05:43:52.820Z,98690.13
2023-03-03T05:49:00.460Z,98681.38
2023-03-03T05:51:27.375Z,98694.75
2023-03-03T05:53:56.370Z,98694.88
2023-03-03T05:56:23.666Z,98696.78
2023-03-03T05:58:50.568Z,98706.56
2023-03-03T06:01:17.595Z,98698.84
2023-03-03T06:03:44.570Z,98699.25
2023-03-03T06:06:12.594Z,98711.16
2023-03-03T06:08:39.557Z,98710.50
2023-03-03T06:11:06.464Z,98719.47
2023-03-03T06:13:33.379Z,98710.88
2023-03-03T06:16:00.387Z,98715.50
2023-03-03T06:18:27.367Z,98724.22
2023-03-03T06:20:55.350Z,98728.13
2023-03-03T06:23:22.994Z,98728.16
2023-03-03T06:25:50.103Z,98721.00
2023-03-03T06:28:17.220Z,98718.44
2023-03-03T06:30:44.228Z,98710.75
2023-03-03T06:33:11.273Z,98716.41
2023-03-03T06:35:38.247Z,98723.25
2023-03-03T06:38:05.241Z,98717.84
2023-03-03T06:40:32.202Z,98711.75
2023-03-03T06:42:59.124Z,98706.47
2023-03-03T06:45:26.099Z,98719.50
2023-03-03T06:47:53.002Z,98729.28
2023-03-03T06:50:21.238Z,98716.09
2023-03-03T06:52:48.371Z,98720.88
2023-03-03T06:55:23.677Z,98718.25
2023-03-03T06:57:50.605Z,98724.31
2023-03-03T07:00:30.701Z,98736.34
2023-03-03T07:03:06.282Z,98713.50
2023-03-03T07:05:34.635Z,98723.59
2023-03-03T07:08:01.566Z,98720.63
2023-03-03T07:10:31.289Z,98729.84
2023-03-03T07:13:17.215Z,98726.59
2023-03-03T07:15:44.223Z,98729.84
2023-03-03T07:18:35.435Z,98724.47
2023-03-03T07:21:36.880Z,98706.09
2023-03-03T07:24:28.121Z,98712.81
2023-03-03T07:27:21.870Z,98720.75
2023-03-03T07:29:51.753Z,98720.38
2023-03-03T07:32:34.579Z,98730.75
2023-03-03T07:35:03.004Z,98742.34
2023-03-03T07:37:39.041Z,98743.66
2023-03-03T07:40:34.999Z,98753.03
2023-03-03T07:43:17.364Z,98742.56
2023-03-03T07:45:44.359Z,98741.59
2023-03-03T07:48:14.055Z,98738.47
2023-03-03T07:50:41.650Z,98720.50
2023-03-03T07:53:36.631Z,98725.84
2023-03-03T07:56:12.793Z,98733.06
2023-03-03T07:58:42.318Z,98741.47
2023-03-03T08:01:31.971Z,98743.19
2023-03-03T08:03:58.961Z,98755.66
2023-03-03T08:06:36.289Z,98751.59
2023-03-03T08:09:29.970Z,98755.94
2023-03-03T08:12:02.609Z,98738.34
2023-03-03T08:14:36.823Z,98742.91
2023-03-03T08:17:15.392Z,98748.78
2023-03-03T08:19:42.359Z,98751.69
2023-03-03T08:22:21.482Z,98742.41
2023-03-03T08:24:48.454Z,98738.94
2023-03-03T08:27:15.420Z,98746.47
2023-03-03T08:29:42.291Z,98758.53
2023-03-03T08:32:09.283Z,98747.63
2023-03-03T08:34:36.231Z,98743.19
2023-03-03T08:37:03.239Z,98753.50
2023-03-03T08:39:30.117Z,98764.38
2023-03-03T08:41:56.999Z,98768.59
2023-03-03T08:44:24.412Z,98771.59
2023-03-03T08:46:51.448Z,98776.75
2023-03-03T08:49:18.617Z,98782.19
2023-03-03T08:51:45.700Z,98775.94
2023-03-03T08:54:12.589Z,98782.66
2023-03-03T08:56:39.571Z,98777.13
2023-03-03T08:59:06.447Z,98779.50
2023-03-03T09:01:33.548Z,98763.16
2023-03-03T09:04:00.918Z,98770.28
2023-03-03T09:06:27.948Z,98764.75
2023-03-03T09:08:55.249Z,98754.75
2023-03-03T09:11:28.010Z,98753.03
2023-03-03T09:14:29.035Z,98754.72
2023-03-03T09:16:57.416Z,98761.97
2023-03-03T09:19:32.628Z,98761.38
2023-03-03T09:22:12.015Z,98755.94
2023-03-03T09:24:38.929Z,98762.94
2023-03-03T09:27:20.025Z,98743.66
2023-03-03T09:29:46.945Z,98761.59
2023-03-03T09:32:34.671Z,98762.66
2023-03-03T09:35:27.568Z,98759.09
2023-03-03T09:37:54.673Z,98767.75
2023-03-03T09:40:45.995Z,98763.78
2023-03-03T09:43:17.282Z,98755.69
2023-03-03T09:45:57.754Z,98771.84
2023-03-03T09:48:47.398Z,98742.91
2023-03-03T09:51:54.129Z,98764.84
2023-03-03T09:54:32.530Z,98772.06
2023-03-03T09:57:09.041Z,98783.28
2023-03-03T09:59:51.005Z,98774.72
2023-03-03T10:02:45.840Z,98787.38
2023-03-03T10:05:33.026Z,98787.25
2023-03-03T10:08:13.112Z,98778.84
2023-03-03T10:10:51.411Z,98769.69
2023-03-03T10:13:52.259Z,98777.72
2023-03-03T10:16:27.914Z,98781.22
2023-03-03T10:19:02.736Z,98788.47
2023-03-03T10:21:48.697Z,98783.50
2023-03-03T10:24:30.934Z,98791.25
2023-03-03T10:27:54.938Z,98793.41
2023-03-03T10:30:42.657Z,98790.41
2023-03-03T10:33:34.848Z,98785.44
2023-03-03T10:36:11.051Z,98794.94
2023-03-03T10:39:03.480Z,98788.03
2023-03-03T10:41:42.378Z,98797.00
2023-03-03T10:44:32.908Z,98790.25
2023-03-03T10:47:18.336Z,98794.94
2023-03-03T10:50:16.256Z,98790.94
2023-03-03T10:53:15.458Z,98804.81
2023-03-03T10:55:53.463Z,98800.25
2023-03-03T10:58:58.841Z,98799.03
2023-03-03T11:01:48.692Z,98802.91
2023-03-03T11:04:46.020Z,98795.41
2023-03-03T11:07:26.695Z,98798.91
2023-03-03T11:10:18.450Z,98798.22
2023-03-03T11:12:57.637Z,98786.13
2023-03-03T11:15:36.878Z,98784.81
2023-03-03T11:18:25.258Z,98785.00
2023-03-03T11:21:07.737Z,98778.72
2023-03-03T11:23:52.600Z,98784.88
2023-03-03T11:26:40.974Z,98785.84
2023-03-03T11:29:31.608Z,98783.03
2023-03-03T11:32:24.548Z,98786.41
2023-03-03T11:35:23.872Z,98790.72
2023-03-03T11:38:14.804Z,98786.56
2023-03-03T11:41:07.386Z,98772.13
2023-03-03T11:43:50.092Z,98770.53
2023-03-03T11:46:22.757Z,98771.94
2023-03-03T11:48:52.440Z,98773.19
2023-03-03T11:51:41.626Z,98785.84
2023-03-03T11:54:24.508Z,98781.94
2023-03-03T11:56:57.669Z,98774.94
2023-03-03T11:59:55.188Z,98767.97
2023-03-03T12:02:28.021Z,98772.16
2023-03-03T12:05:21.760Z,98768.84
2023-03-03T12:08:08.061Z,98774.16
2023-03-03T12:10:58.413Z,98755.03
2023-03-03T12:13:50.967Z,98772.41
2023-03-03T12:16:43.988Z,98764.41
2023-03-03T12:19:16.710Z,98759.03
2023-03-03T12:21:49.679Z,98767.63
2023-03-03T12:24:54.557Z,98754.47
2023-03-03T12:27:36.656Z,98757.22
2023-03-03T12:30:40.817Z,98750.59
2023-03-03T12:33:39.692Z,98749.00
2023-03-03T12:36:27.855Z,98749.13
2023-03-03T12:39:07.011Z,98747.56
2023-03-03T12:41:45.909Z,98753.91
2023-03-03T12:44:26.464Z,98752.94
2023-03-03T12:47:23.956Z,98738.88
2023-03-03T12:50:23.669Z,98742.50
2023-03-03T12:53:02.767Z,98741.91
2023-03-03T12:55:52.925Z,98740.00
2023-03-03T12:58:20.666Z,98744.22
2023-03-03T13:01:13.869Z,98736.63
2023-03-03T13:03:55.006Z,98728.25
2023-03-03T13:06:34.535Z,98730.91
2023-03-03T13:09:27.185Z,98727.97
2023-03-03T13:12:16.622Z,98723.53
2023-03-03T13:15:02.832Z,98730.22
2023-03-03T13:17:40.227Z,98720.06
2023-03-03T13:20:35.061Z,98725.38
2023-03-03T13:23:22.239Z,98730.75
2023-03-03T13:26:00.998Z,98734.97
2023-03-03T13:28:50.630Z,98737.53
2023-03-03T13:31:22.257Z,98731.81
2023-03-03T13:33:58.344Z,98730.66
2023-03-03T13:36:41.732Z,98728.16
2023-03-03T13:39:23.569Z,98728.16
2023-03-03T13:42:01.843Z,98727.00
2023-03-03T13:44:40.736Z,98728.16
2023-03-03T13:47:14.839Z,98725.50
2023-03-03T13:49:55.548Z,98723.91
2023-03-03T13:52:25.651Z,98694.84
2023-03-03T13:55:00.327Z,98716.59
2023-03-03T13:57:30.113Z,98722.94
2023-03-03T14:00:02.689Z,98722.66
2023-03-03T14:02:48.295Z,98723.47
2023-03-03T14:05:37.770Z,98722.88
2023-03-03T14:08:25.748Z,98724.03
2023-03-03T14:11:07.645Z,98717.47
2023-03-03T14:13:49.681Z,98719.59
2023-03-03T14:16:23.502Z,98713.94
2023-03-03T14:19:04.026Z,98721.75
2023-03-03T14:21:40.777Z,98725.94
2023-03-03T14:24:17.602Z,98720.94
2023-03-03T14:26:59.495Z,98720.13
2023-03-03T14:29:26.306Z,98717.25
2023-03-03T14:31:54.667Z,98709.44
2023-03-03T14:34:24.619Z,98706.28
2023-03-03T14:36:57.802Z,98717.47
2023-03-03T14:39:40.302Z,98713.16
2023-03-03T14:42:31.763Z,98711.41
2023-03-03T14:45:01.438Z,98721.53
2023-03-03T14:47:30.094Z,98707.00
2023-03-03T14:50:03.189Z,98717.69
2023-03-03T14:52:33.647Z,98717.53
2023-03-03T14:55:05.470Z,98717.91
2023-03-03T14:57:34.729Z,98715.66
2023-03-03T15:00:27.910Z,98702.28
2023-03-03T15:03:16.239Z,98713.38
2023-03-03T15:05:51.410Z,98717.69
2023-03-03T15:08:31.242Z,98716.72
2023-03-03T15:11:14.514Z,98712.53
2023-03-03T15:13:41.543Z,98707.50
2023-03-03T15:16:16.925Z,98704.16
2023-03-03T15:19:14.824Z,98703.00
2023-03-03T15:21:55.545Z,98698.22
2023-03-03T15:24:39.605Z,98677.94
2023-03-03T15:27:21.406Z,98705.06
2023-03-03T15:30:02.275Z,98705.66
2023-03-03T15:32:51.984Z,98702.06
2023-03-03T15:35:35.001Z,98706.03
2023-03-03T15:38:25.300Z,98704.34
2023-03-03T15:41:06.967Z,98704.56
2023-03-03T15:43:39.329Z,98705.81
2023-03-03T15:46:33.835Z,98708.97
2023-03-03T15:49:22.131Z,98710.25
2023-03-03T15:52:21.610Z,98702.75
2023-03-03T15:54:51.247Z,98704.75
2023-03-03T15:57:50.763Z,98708.00
2023-03-03T16:00:29.474Z,98701.84
2023-03-03T16:03:02.599Z,98700.38
2023-03-03T16:05:39.888Z,98702.34
2023-03-03T16:08:19.292Z,98710.78
2023-03-03T16:11:09.561Z,98713.50
2023-03-03T16:13:59.921Z,98705.28
2023-03-03T16:16:41.826Z,98707.28
2023-03-03T16:19:45.384Z,98696.03
2023-03-03T16:22:49.392Z,98709.63
2023-03-03T16:25:37.956Z,98714.81
2023-03-03T16:28:07.610Z,98723.47
2023-03-03T16:30:53.401Z,98724.22
2023-03-03T16:33:20.272Z,98718.13
2023-03-03T16:36:02.723Z,98722.41
2023-03-03T16:38:44.331Z,98726.75
2023-03-03T16:41:23.452Z,98724.59
2023-03-03T16:44:16.401Z,98726.22
2023-03-03T16:46:50.000Z,98714.16
2023-03-03T16:49:32.091Z,98723.56
2023-03-03T16:52:07.753Z,98731.91
2023-03-03T16:54:40.739Z,98726.63
2023-03-03T16:57:46.153Z,98725.56
2023-03-03T17:00:21.691Z,98736.94
2023-03-03T17:03:13.446Z,98726.72
2023-03-03T17:05:45.492Z,98727.75
2023-03-03T17:08:27.138Z,98733.66
2023-03-03T17:11:02.803Z,98724.66
2023-03-03T17:13:43.785Z,98728.03
2023-03-03T17:16:49.820Z,98729.63
2023-03-03T17:19:28.902Z,98728.75
2023-03-03T17:22:12.371Z,98717.59
2023-03-03T17:24:57.860Z,98718.75
2023-03-03T17:27:46.702Z,98734.31
2023-03-03T17:30:31.658Z,98734.19
2023-03-03T17:33:37.080Z,98743.41
2023-03-03T17:36:38.237Z,98738.66
2023-03-03T17:39:42.858Z,98728.72
2023-03-03T17:42:43.035Z,98724.00
2023-03-03T17:45:15.590Z,98730.88
2023-03-03T17:47:54.552Z,98733.78
2023-03-03T17:50:30.530Z,98729.31
2023-03-03T17:52:57.448Z,98739.63
2023-03-03T17:55:30.371Z,98740.75
2023-03-03T17:58:43.069Z,98735.72
2023-03-03T18:02:01.614Z,98730.22
2023-03-03T18:04:46.403Z,98732.88
2023-03-03T18:07:34.172Z,98736.38
2023-03-03T18:10:28.329Z,98732.88
2023-03-03T18:13:13.156Z,98736.50
2023-03-03T18:16:19.330Z,98732.31
2023-03-03T18:19:23.945Z,98736.59
2023-03-03T18:22:13.095Z,98735.22
2023-03-03T18:25:09.406Z,98728.94
2023-03-03T18:27:43.273Z,98730.38
2023-03-03T18:30:20.682Z,98736.72
2023-03-03T18:33:02.428Z,98741.19
2023-03-03T18:35:46.471Z,98752.06
2023-03-03T18:38:16.384Z,98745.91
2023-03-03T18:41:12.610Z,98745.00
2023-03-03T18:43:45.668Z,98735.28
2023-03-03T18:46:23.101Z,98732.25
2023-03-03T18:48:50.032Z,98727.50
2023-03-03T18:51:37.467Z,98727.97
2023-03-03T18:54:13.867Z,98726.72
2023-03-03T18:57:03.921Z,98730.94
2023-03-03T18:59:30.793Z,98717.63
2023-03-03T19:02:21.092Z,98718.09
2023-03-03T19:05:11.569Z,98719.09
2023-03-03T19:07:41.605Z,98721.41
2023-03-03T19:10:20.502Z,98713.56
2023-03-03T19:12:54.550Z,98712.72
2023-03-03T19:15:30.473Z,98717.47
2023-03-03T19:18:06.135Z,98718.00
2023-03-03T19:20:55.431Z,98717.16
2023-03-03T19:23:35.554Z,98711.84
2023-03-03T19:26:30.523Z,98718.25
2023-03-03T19:29:12.669Z,98719.88
2023-03-03T19:32:17.140Z,98718.06
2023-03-03T19:35:27.410Z,98717.59
2023-03-03T19:38:32.533Z,98726.06
2023-03-03T19:41:10.123Z,98726.53
2023-03-03T19:44:10.348Z,98730.09
2023-03-03T19:46:56.138Z,98727.91
2023-03-03T19:49:38.475Z,98726.72
2023-03-03T19:52:39.292Z,98721.94
2023-03-03T19:55:24.272Z,98723.94
2023-03-03T19:58:14.390Z,98728.88
2023-03-03T20:00:48.105Z,98721.41
2023-03-03T20:03:34.232Z,98719.53
2023-03-03T20:06:23.561Z,98725.75
2023-03-03T20:09:03.952Z,98724.63
2023-03-03T20:11:48.272Z,98720.16
2023-03-03T20:14:36.791Z,98728.59
2023-03-03T20:17:22.457Z,98718.69
2023-03-03T20:19:57.285Z,98725.31
2023-03-03T20:23:17.097Z,98711.84
2023-03-03T20:25:49.061Z,98716.19
2023-03-03T20:28:43.879Z,98706.50
2023-03-03T20:31:19.637Z,98711.81
2023-03-03T20:33:55.210Z,98715.94
2023-03-03T20:36:39.974Z,98714.84
2023-03-03T20:39:20.815Z,98712.50
2023-03-03T20:42:15.012Z,98717.63
2023-03-03T20:44:59.239Z,98717.59
2023-03-03T20:48:02.950Z,98715.50
2023-03-03T20:50:48.753Z,98719.31
2023-03-03T20:53:52.618Z,98703.41
2023-03-03T20:56:31.210Z,98713.63
2023-03-03T20:59:17.741Z,98698.81
2023-03-03T21:02:10.473Z,98707.22
2023-03-03T21:04:38.578Z,98696.59
2023-03-03T21:07:06.648Z,98690.78
2023-03-03T21:09:39.958Z,98691.03
2023-03-03T21:12:29.215Z,98686.44
2023-03-03T21:15:01.266Z,98679.19
2023-03-03T21:17:30.687Z,98678.47
2023-03-03T21:20:19.218Z,98681.72
2023-03-03T21:22:46.412Z,98677.22
2023-03-03T21:25:41.986Z,98680.88
2023-03-03T21:28:26.017Z,98680.59
2023-03-03T21:31:17.138Z,98672.19
2023-03-03T21:33:49.119Z,98674.72
2023-03-03T21:36:35.899Z,98673.38
2023-03-03T21:39:20.666Z,98667.16
2023-03-03T21:41:55.557Z,98664.69
2023-03-03T21:44:50.147Z,98673.38
2023-03-03T21:47:20.164Z,98660.59
2023-03-03T21:49:49.109Z,98655.03
2023-03-03T21:52:17.988Z,98665.78
2023-03-03T21:54:46.588Z,98658.91
2023-03-03T21:57:14.207Z,98650.56
2023-03-03T21:59:41.599Z,98650.88
2023-03-03T22:02:09.375Z,98650.31
2023-03-03T22:04:39.057Z,98641.09
2023-03-03T22:07:06.015Z,98632.69
2023-03-03T22:09:33.030Z,98625.09
2023-03-03T22:11:59.974Z,98620.13
2023-03-03T22:14:27.174Z,98619.41
2023-03-03T22:16:54.182Z,98612.56
2023-03-03T22:19:21.546Z,98614.81
2023-03-03T22:21:49.911Z,98609.25
2023-03-03T22:24:17.376Z,98609.69
2023-03-03T22:26:44.328Z,98602.59
2023-03-03T22:29:11.384Z,98600.88
2023-03-03T22:31:38.336Z,98591.97
2023-03-03T22:34:05.736Z,98589.97
2023-03-03T22:36:32.866Z,98582.59
2023-03-03T22:39:01.116Z,98583.28
2023-03-03T22:41:28.113Z,98582.97
2023-03-03T22:43:55.066Z,98592.63
2023-03-03T22:46:22.004Z,98590.41
2023-03-03T22:48:48.892Z,98586.00
2023-03-03T22:51:15.876Z,98596.69
2023-03-03T22:53:42.762Z,98587.38
2023-03-03T22:56:09.770Z,98582.56
2023-03-03T22:58:36.661Z,98574.75
2023-03-03T23:01:05.025Z,98572.94
2023-03-03T23:03:32.991Z,98579.28
2023-03-03T23:06:00.039Z,98574.38
2023-03-03T23:08:27.822Z,98574.16
2023-03-03T23:10:54.802Z,98572.59
2023-03-03T23:13:21.915Z,98571.13
2023-03-03T23:15:48.884Z,98554.00
2023-03-03T23:18:15.930Z,98558.97
2023-03-03T23:20:46.173Z,98558.03
2023-03-03T23:23:13.230Z,98555.38
2023-03-03T23:25:40.301Z,98549.78
2023-03-03T23:28:07.989Z,98540.59
2023-03-03T23:30:34.939Z,98549.97
2023-03-03T23:33:01.876Z,98540.03
2023-03-03T23:35:28.911Z,98552.59
2023-03-03T23:37:55.896Z,98548.38
2023-03-03T23:40:23.024Z,98550.06
2023-03-03T23:42:50.323Z,98551.75
2023-03-03T23:45:17.584Z,98546.44
2023-03-03T23:47:44.542Z,98534.53
2023-03-03T23:50:12.840Z,98530.22
2023-03-03T23:52:39.820Z,98519.31
2023-03-03T23:55:07.461Z,98528.84
2023-03-03T23:57:34.382Z,98522.97
